Архив погоды в Назрани

Метеограмма Назрань
Понедельник, 20 Августа
Время местн. Темп Ветер Видим Явления Облачность нижн/средн/верх Атм. давл. Влжн Точка росы ВНГО R Сост. почвы Tg s
Напр Скр Прв ур.ст ур.м изм
18:00 +20.6° С-В 1 - 20 км - ясно 705 761 -0.3 56% +11.4° более 2.5 км - - - -
15:00 +22.1° С-В 3 - 20 км - ясно 706 761 -0.5 45% +9.5° более 2.5 км - - - -
12:00 +21.4° С-В 2 - 20 км - ясно 706 762 -0.4 46% +9.3° более 2.5 км - - - -
09:00 +20° С-В 2 - 20 км - ясно 707 763 +0.2 56% +10.9° более 2.5 км - - - -
06:00 +16.6° Ю 2 - 20 км - ясно 707 764 +0.2 75% +12.1° более 2.5 км 0 Влажная (без луж) +16° -
03:00 +18.1° З 1 - 10 км - облачно с прояснениями 706 763 -0.3 76% +13.9° - - - - -
00:00 +19° С-В 2 - 10 км - облачно с прояснениями 707 763 +0.3 75% +14.5° - - - - -
Воскресенье, 19 Августа
Время местн. Темп Ветер Видим Явления Облачность нижн/средн/верх Атм. давл. Влжн Точка росы ВНГО R Сост. почвы Tg s
Напр Скр Прв ур.ст ур.м изм
21:00 +19.6° В,Ю-В 2 - 10 км - облачно с прояснениями 706 763 +0.8 75% +15° - - - - -
18:00 +21.1° З 2 - 20 км - облачно с прояснениями 705 762 +0.6 73% +16° - - - - -
15:00 +25° В,Ю-В 2 - 20 км - переменная облачность 705 760 +0.1 70% +19.1° более 2.5 км - - - -
12:00 +23.3° Ю 3 - 20 км - переменная облачность 705 761 +0.2 69% +17.3° более 2.5 км - - - -
09:00 +18.8° Ю 2 - 20 км - переменная облачность 705 761 +0.3 74% +14.1° более 2.5 км - - - -
06:00 +17.6° В,Ю-В 2 - 20 км - переменная облачность 704 761 +1.1 77% +13.6° более 2.5 км - Влажная (без луж) - -
03:00 +16.6° Ю 2 - 10 км - облачно 703 760 -0.2 89% +14.7° - - - - -
00:00 +20° С-В 2 - 10 км - облачно 704 760 -0.3 88% +17.9° - - - - -
Суббота, 18 Августа
Время местн. Темп Ветер Видим Явления Облачность нижн/средн/верх Атм. давл. Влжн Точка росы ВНГО R Сост. почвы Tg s
Напр Скр Прв ур.ст ур.м изм
21:00 +20.7° В,Ю-В 2 - 10 км небо без изменений {ливневые осадки} облачно 704 760 0 86% +18.3° - - - - -
18:00 +21.8° Ю 3 - 10 км слабый ливневый дождь {гроза} облачно 704 760 +1.7 87% +19.6° 1 км - - - -
15:00 +24.5° С,С-В 1 - 10 км - облачно с прояснениями 702 757 -0.3 49% +13° - - - - -
12:00 +23.8° С,С-В 1 - 20 км - облачно с прояснениями 702 757 -0.2 53% +13.6° - - - - -
09:00 +22.8° С-В 1 - 20 км - облачно с прояснениями 703 758 +0.2 65% +15.9° - - - - -
06:00 +20° Ю,Ю-З 1 - 20 км - преимущественно облачно 702 758 +0.2 86% +17.6° - - Сухая (без трещин) - -
03:00 +18.4° штиль 0 - 10 км - облачно с прояснениями 702 758 -0.6 84% +15.7° - - - - -
00:00 +20.2° штиль 0 - 20 км - переменная облачность 703 758 -0.2 81% +16.9° - - - - -
Пятница, 17 Августа
Время местн. Темп Ветер Видим Явления Облачность нижн/средн/верх Атм. давл. Влжн Точка росы ВНГО R Сост. почвы Tg s
Напр Скр Прв ур.ст ур.м изм
21:00 +21.6° штиль 0 - 20 км - переменная облачность 703 - - 79% +17.9° более 2.5 км - - - -
18:00 +25° Ю,Ю-З 1 - 20 км - преимущественно облачно 703 758 -0.1 67% +18.4° 1 км - - - -
15:00 +14.7° С 1 - 20 км - облачно с прояснениями 703 758 -0.3 128% +18.6° 1 км - - - -